createdAt,value
2022-10-29T00:00:43.307Z,101681.03
2022-10-29T00:03:11.307Z,101679.34
2022-10-29T00:05:39.177Z,101689.19
2022-10-29T00:08:08.449Z,101686.69
2022-10-29T00:10:36.658Z,101684.78
2022-10-29T00:13:04.593Z,101692.97
2022-10-29T00:15:32.434Z,101692.97
2022-10-29T00:18:00.383Z,101694.84
2022-10-29T00:20:28.523Z,101694.84
2022-10-29T00:22:56.614Z,101689.41
2022-10-29T00:25:26.167Z,101690.44
2022-10-29T00:27:54.015Z,101668.00
2022-10-29T00:30:22.201Z,101694.00
2022-10-29T00:32:50.095Z,101687.72
2022-10-29T00:35:18.061Z,101692.31
2022-10-29T00:37:45.928Z,101689.59
2022-10-29T00:40:14.416Z,101694.25
2022-10-29T00:42:43.665Z,101698.63
2022-10-29T00:45:18.963Z,101698.63
2022-10-29T00:47:46.832Z,101689.59
2022-10-29T00:50:14.937Z,101689.59
2022-10-29T00:52:46.114Z,101645.13
2022-10-29T00:55:15.380Z,101668.84
2022-10-29T00:57:48.407Z,101684.16
2022-10-29T01:00:17.280Z,101652.03
2022-10-29T01:02:45.573Z,101679.53
2022-10-29T01:05:14.254Z,101680.63
2022-10-29T01:07:42.141Z,101673.25
2022-10-29T01:10:11.112Z,101681.22
2022-10-29T01:12:57.601Z,101674.94
2022-10-29T01:15:28.435Z,101670.53
2022-10-29T01:18:03.612Z,101678.69
2022-10-29T01:20:55.480Z,101671.38
2022-10-29T01:24:02.484Z,101668.88
2022-10-29T01:26:50.348Z,101675.16
2022-10-29T01:29:26.153Z,101663.41
2022-10-29T01:31:56.837Z,101668.03
2022-10-29T01:34:26.589Z,101659.84
2022-10-29T01:36:55.413Z,101669.72
2022-10-29T01:39:27.962Z,101637.78
2022-10-29T01:41:58.530Z,101568.78
2022-10-29T01:44:31.134Z,101668.03
2022-10-29T01:47:01.638Z,101655.25
2022-10-29T01:49:33.388Z,101636.78
2022-10-29T01:52:02.992Z,101577.81
2022-10-29T01:54:30.914Z,101640.97
2022-10-29T01:56:59.035Z,101629.03
2022-10-29T01:59:35.756Z,101648.94
2022-10-29T02:02:11.667Z,101646.22
2022-10-29T02:04:48.413Z,101651.69
2022-10-29T02:07:19.173Z,101602.97
2022-10-29T02:09:50.436Z,101633.63
2022-10-29T02:12:21.240Z,101639.94
2022-10-29T02:14:50.567Z,101633.63
2022-10-29T02:17:19.830Z,101629.88
2022-10-29T02:19:47.712Z,101625.47
2022-10-29T02:22:15.864Z,101602.41
2022-10-29T02:24:43.801Z,101615.41
2022-10-29T02:27:11.785Z,101616.44
2022-10-29T02:29:39.694Z,101615.41
2022-10-29T02:32:07.869Z,101615.41
2022-10-29T02:34:37.142Z,101615.41
2022-10-29T02:37:05.039Z,101609.13
2022-10-29T02:39:33.036Z,101609.94
2022-10-29T02:42:01.222Z,101606.19
2022-10-29T02:44:29.094Z,101612.47
2022-10-29T02:46:56.963Z,101616.25
2022-10-29T02:49:24.955Z,101580.56
2022-10-29T02:51:54.535Z,101609.94
2022-10-29T02:54:22.432Z,101621.69
2022-10-29T02:56:50.327Z,101560.00
2022-10-29T02:59:18.175Z,101618.97
2022-10-29T03:01:46.490Z,101607.84
2022-10-29T03:04:14.624Z,101612.69
2022-10-29T03:06:42.488Z,101608.28
2022-10-29T03:09:11.922Z,101602.81
2022-10-29T03:11:40.109Z,101601.78
2022-10-29T03:14:07.964Z,101598.22
2022-10-29T03:16:35.777Z,101589.00
2022-10-29T03:19:03.990Z,101592.75
2022-10-29T03:21:32.146Z,101587.75
2022-10-29T03:24:00.084Z,101581.00
2022-10-29T03:26:29.391Z,101583.75
2022-10-29T03:28:57.248Z,101589.19
2022-10-29T03:31:25.480Z,101591.91
2022-10-29T03:33:53.358Z,101581.00
2022-10-29T03:36:21.328Z,101581.66
2022-10-29T03:38:49.223Z,101569.91
2022-10-29T03:41:17.420Z,101572.63
2022-10-29T03:43:46.725Z,101570.75
2022-10-29T03:46:14.617Z,101571.59
2022-10-29T03:48:42.524Z,101560.88
2022-10-29T03:51:11.129Z,101555.25
2022-10-29T03:53:39.137Z,101462.41
2022-10-29T03:56:07.403Z,101553.16
2022-10-29T03:58:35.301Z,101566.97
2022-10-29T04:01:05.617Z,101573.25
2022-10-29T04:03:34.108Z,101574.09
2022-10-29T04:06:04.034Z,101565.50
2022-10-29T04:08:31.956Z,101566.16
2022-10-29T04:11:00.086Z,101567.78
2022-10-29T04:13:27.953Z,101571.38
2022-10-29T04:15:56.018Z,101569.69
2022-10-29T04:18:25.417Z,101580.38
2022-10-29T04:29:17.876Z,101557.97
2022-10-29T04:31:45.972Z,101559.84
2022-10-29T04:34:15.212Z,101531.97
2022-10-29T04:36:43.102Z,101514.56
2022-10-29T04:39:10.944Z,101556.28
2022-10-29T04:41:39.080Z,101550.19
2022-10-29T04:44:06.967Z,101543.25
2022-10-29T04:46:34.813Z,101486.28
2022-10-29T04:49:02.819Z,101509.72
2022-10-29T04:51:32.115Z,101468.22
2022-10-29T04:53:59.954Z,101490.25
2022-10-29T04:56:27.790Z,101502.38
2022-10-29T04:58:55.663Z,101508.91
2022-10-29T05:01:24.051Z,101503.66
2022-10-29T05:03:55.573Z,101512.03
2022-10-29T05:06:26.841Z,101507.44
2022-10-29T05:08:56.066Z,101518.53
2022-10-29T05:11:24.189Z,101521.25
2022-10-29T05:13:52.104Z,101510.34
2022-10-29T05:16:20.007Z,101506.78
2022-10-29T05:18:47.853Z,101504.91
2022-10-29T05:21:16.044Z,101505.75
2022-10-29T05:23:43.884Z,101489.00
2022-10-29T05:26:13.165Z,101505.75
2022-10-29T05:28:41.061Z,101511.19
2022-10-29T05:31:09.217Z,101522.09
2022-10-29T05:33:37.093Z,101519.38
2022-10-29T05:36:06.146Z,101519.38
2022-10-29T05:38:34.007Z,101516.25
2022-10-29T05:41:02.220Z,101521.25
2022-10-29T05:43:31.507Z,101516.66
2022-10-29T05:45:59.387Z,101521.25
2022-10-29T05:48:27.227Z,101513.94
2022-10-29T05:50:55.412Z,101519.38
2022-10-29T05:53:23.275Z,101522.09
2022-10-29T05:55:51.112Z,101495.09
2022-10-29T05:58:18.976Z,101496.53
2022-10-29T06:00:48.503Z,101507.84
2022-10-29T06:03:17.409Z,101514.13
2022-10-29T06:05:45.313Z,101513.94
2022-10-29T06:08:13.179Z,101508.47
2022-10-29T06:10:41.101Z,101511.19
2022-10-29T06:13:12.358Z,101502.38
2022-10-29T06:15:40.307Z,101496.72
2022-10-29T06:18:09.573Z,101501.13
2022-10-29T06:20:37.805Z,101496.72
2022-10-29T06:23:05.729Z,101494.84
2022-10-29T06:25:33.605Z,101494.84
2022-10-29T06:28:02.242Z,101489.41
2022-10-29T06:30:30.622Z,101492.97
2022-10-29T06:32:58.692Z,101492.97
2022-10-29T06:35:28.330Z,101484.78
2022-10-29T06:37:56.653Z,101476.59
2022-10-29T06:40:25.204Z,101469.28
2022-10-29T06:42:59.806Z,101473.88
2022-10-29T06:45:27.660Z,101474.72
2022-10-29T06:47:55.704Z,101474.72
2022-10-29T06:50:24.054Z,101483.75
2022-10-29T06:52:57.899Z,101487.91
2022-10-29T06:55:26.332Z,101501.13
2022-10-29T06:58:03.894Z,101503.88
2022-10-29T07:00:31.976Z,101506.59
2022-10-29T07:03:00.511Z,101515.59
2022-10-29T07:05:28.589Z,101506.59
2022-10-29T07:07:58.375Z,101514.75
2022-10-29T07:10:27.419Z,101510.16
2022-10-29T07:12:55.271Z,101510.16
2022-10-29T07:15:27.256Z,101509.31
2022-10-29T07:17:57.065Z,101503.66
2022-10-29T07:20:25.729Z,101497.38
2022-10-29T07:22:53.628Z,101494.66
2022-10-29T07:25:22.872Z,101505.53
2022-10-29T07:27:50.997Z,101506.38
2022-10-29T07:30:19.344Z,101501.13
2022-10-29T07:32:47.232Z,101505.56
2022-10-29T07:35:15.313Z,101523.78
2022-10-29T07:37:43.206Z,101527.34
2022-10-29T07:40:12.414Z,101539.28
2022-10-29T07:42:41.681Z,101535.53
2022-10-29T07:45:12.397Z,101539.09
2022-10-29T07:47:40.273Z,101534.44
2022-10-29T07:50:09.422Z,101539.09
2022-10-29T07:52:37.425Z,101522.09
2022-10-29T07:55:05.572Z,101518.94
2022-10-29T07:57:33.526Z,101480.38
2022-10-29T08:00:03.054Z,101518.09
2022-10-29T08:02:30.892Z,101527.97
2022-10-29T08:04:58.776Z,101518.94
2022-10-29T08:07:26.630Z,101519.78
2022-10-29T08:09:54.480Z,101517.28
2022-10-29T08:12:22.382Z,101515.38
2022-10-29T08:14:50.268Z,101493.59
2022-10-29T08:17:19.512Z,101526.28
2022-10-29T08:19:47.404Z,101515.59
2022-10-29T08:22:15.586Z,101508.03
2022-10-29T08:24:44.001Z,101506.38
2022-10-29T08:27:11.981Z,101507.19
2022-10-29T08:29:41.171Z,101500.94
2022-10-29T08:32:09.116Z,101494.66
2022-10-29T08:34:38.440Z,101495.47
2022-10-29T08:37:06.418Z,101484.78
2022-10-29T08:39:34.304Z,101472.25
2022-10-29T08:42:07.594Z,101490.88
2022-10-29T08:44:55.443Z,101491.09
2022-10-29T08:47:23.873Z,101501.75
2022-10-29T08:50:01.267Z,101492.75
2022-10-29T08:52:29.897Z,101500.09
2022-10-29T08:55:08.401Z,101500.09
2022-10-29T08:57:38.506Z,101495.47
2022-10-29T09:00:11.256Z,101486.03
2022-10-29T09:02:40.293Z,101495.47
2022-10-29T09:05:13.797Z,101493.56
2022-10-29T09:08:02.460Z,101490.03
2022-10-29T09:10:34.382Z,101488.97
2022-10-29T09:13:34.602Z,101475.13
2022-10-29T09:16:11.706Z,101479.53
2022-10-29T09:19:01.171Z,101485.38
2022-10-29T09:21:34.123Z,101488.97
2022-10-29T09:24:08.701Z,101482.47
2022-10-29T09:26:43.532Z,101487.06
2022-10-29T09:29:47.816Z,101454.19
2022-10-29T09:32:17.747Z,101497.97
2022-10-29T09:34:47.333Z,101488.97
2022-10-29T09:37:17.637Z,101489.78
2022-10-29T09:39:47.079Z,101478.94
2022-10-29T09:42:18.125Z,101452.94
2022-10-29T09:44:50.241Z,101484.59
2022-10-29T09:47:27.518Z,101481.63
2022-10-29T09:50:07.238Z,101473.03
2022-10-29T09:52:39.989Z,101473.44
2022-10-29T09:55:08.714Z,101487.91
2022-10-29T09:57:36.776Z,101480.56
2022-10-29T10:00:10.891Z,101478.69
2022-10-29T10:02:39.478Z,101477.84
2022-10-29T10:05:09.362Z,101477.00
2022-10-29T10:07:38.691Z,101481.41
2022-10-29T10:10:07.593Z,101480.56
2022-10-29T10:12:46.085Z,101462.78
2022-10-29T10:15:23.566Z,101472.59
2022-10-29T10:17:59.051Z,101453.97
2022-10-29T10:20:38.554Z,101472.59
2022-10-29T10:23:27.221Z,101476.16
2022-10-29T10:26:00.217Z,101477.00
2022-10-29T10:28:34.506Z,101474.28
2022-10-29T10:31:08.505Z,101469.88
2022-10-29T10:33:37.543Z,101461.09
2022-10-29T10:36:06.794Z,101464.22
2022-10-29T10:38:44.482Z,101452.47
2022-10-29T10:41:12.746Z,101454.38
2022-10-29T10:43:43.259Z,101450.59
2022-10-29T10:46:14.039Z,101446.63
2022-10-29T10:48:41.897Z,101453.31
2022-10-29T10:51:29.095Z,101446.63
2022-10-29T10:53:58.611Z,101445.16
2022-10-29T10:56:26.540Z,101452.47
2022-10-29T10:59:01.981Z,101435.09
2022-10-29T11:01:32.975Z,101436.97
2022-10-29T11:04:04.903Z,101440.75
2022-10-29T11:06:34.357Z,101443.47
2022-10-29T11:09:07.368Z,101432.56
2022-10-29T11:11:36.861Z,101425.88
2022-10-29T11:14:06.383Z,101425.84
2022-10-29T11:16:39.566Z,101422.28
2022-10-29T11:19:12.167Z,101370.56
2022-10-29T11:21:41.579Z,101427.94
2022-10-29T11:24:12.632Z,101435.28
2022-10-29T11:26:42.019Z,101423.97
2022-10-29T11:29:16.190Z,101420.03
2022-10-29T11:31:48.190Z,101426.28
2022-10-29T11:34:18.171Z,101425.44
2022-10-29T11:36:48.510Z,101426.28
2022-10-29T11:39:20.642Z,101425.44
2022-10-29T11:41:51.409Z,101413.72
2022-10-29T11:44:20.676Z,101407.00
2022-10-29T11:46:55.707Z,101405.34
2022-10-29T11:49:33.171Z,101419.16
2022-10-29T11:52:05.698Z,101416.44
2022-10-29T11:54:46.802Z,101412.88
2022-10-29T11:57:17.127Z,101413.72
2022-10-29T11:59:55.854Z,101405.34
2022-10-29T12:02:30.879Z,101413.72
2022-10-29T12:05:00.024Z,101400.09
2022-10-29T12:07:35.107Z,101395.03
2022-10-29T12:10:19.343Z,101398.16
2022-10-29T12:12:48.968Z,101395.44
2022-10-29T12:15:22.496Z,101397.38
2022-10-29T12:17:55.300Z,101392.72
2022-10-29T12:20:27.892Z,101364.28
2022-10-29T12:23:02.548Z,101390.22
2022-10-29T12:25:40.016Z,101384.78
2022-10-29T12:28:19.337Z,101374.53
2022-10-29T12:30:54.813Z,101379.34
2022-10-29T12:33:25.366Z,101374.94
2022-10-29T12:35:55.326Z,101373.88
2022-10-29T12:38:30.987Z,101367.59
2022-10-29T12:41:03.563Z,101364.03
2022-10-29T12:43:32.284Z,101315.50
2022-10-29T12:46:19.644Z,101364.88
2022-10-29T12:48:53.236Z,101364.03
2022-10-29T12:51:24.499Z,101335.16
2022-10-29T12:54:17.400Z,101355.00
2022-10-29T12:56:49.470Z,101358.78
2022-10-29T12:59:32.448Z,101355.84
2022-10-29T13:02:19.774Z,101355.00
2022-10-29T13:05:19.525Z,101349.56
2022-10-29T13:08:28.210Z,101337.22
2022-10-29T13:10:56.712Z,101324.03
2022-10-29T13:13:52.254Z,101339.09
2022-10-29T13:16:21.514Z,101340.75
2022-10-29T13:19:00.797Z,101342.44
2022-10-29T13:21:56.151Z,101340.53
2022-10-29T13:24:24.063Z,101338.88
2022-10-29T13:27:05.890Z,101283.41
2022-10-29T13:29:49.344Z,101324.19
2022-10-29T13:32:36.179Z,101325.25
2022-10-29T13:35:05.668Z,101295.97
2022-10-29T13:37:58.103Z,101315.19
2022-10-29T13:41:08.742Z,101313.75
2022-10-29T13:43:36.711Z,101317.91
2022-10-29T13:46:32.583Z,101300.72
2022-10-29T13:49:01.741Z,101312.69
2022-10-29T13:51:34.408Z,101305.31
2022-10-29T13:54:05.722Z,101308.69
2022-10-29T13:56:37.426Z,101300.72
2022-10-29T13:59:08.268Z,101278.72
2022-10-29T14:01:37.883Z,101287.91
2022-10-29T14:04:09.311Z,101288.75
2022-10-29T14:06:38.857Z,101291.50
2022-10-29T14:09:14.365Z,101287.91
2022-10-29T14:11:44.418Z,101251.72
2022-10-29T14:14:24.494Z,101289.59
2022-10-29T14:17:08.581Z,101286.03
2022-10-29T14:19:36.491Z,101285.19
2022-10-29T14:22:04.395Z,101282.47
2022-10-29T14:24:38.220Z,101281.63
2022-10-29T14:27:14.024Z,101284.16
2022-10-29T14:29:44.788Z,101278.91
2022-10-29T14:32:23.380Z,101281.44
2022-10-29T14:34:51.571Z,101278.69
2022-10-29T14:37:26.281Z,101278.69
2022-10-29T14:39:58.302Z,101275.13
2022-10-29T14:42:29.211Z,101272.19
2022-10-29T14:44:57.461Z,101275.75
2022-10-29T14:47:32.261Z,101266.75
2022-10-29T14:50:02.832Z,101252.09
2022-10-29T14:52:32.040Z,101262.13
2022-10-29T14:55:03.783Z,101264.03
2022-10-29T14:57:33.652Z,101261.50
2022-10-29T15:00:03.391Z,101264.03
2022-10-29T15:02:38.674Z,101274.94
2022-10-29T15:05:21.941Z,101274.94
2022-10-29T15:07:49.812Z,101264.03
2022-10-29T15:10:20.573Z,101274.94
2022-10-29T15:12:48.574Z,101264.03
2022-10-29T15:15:25.564Z,101273.03
2022-10-29T15:17:56.803Z,101270.31
2022-10-29T15:20:27.221Z,101261.72
2022-10-29T15:22:56.004Z,101270.31
2022-10-29T15:25:28.258Z,101264.03
2022-10-29T15:27:56.407Z,101273.03
2022-10-29T15:30:31.909Z,101233.94
2022-10-29T15:33:01.518Z,101242.06
2022-10-29T15:35:29.527Z,101230.16
2022-10-29T15:37:57.863Z,101260.47
2022-10-29T15:40:26.400Z,101238.72
2022-10-29T15:42:54.879Z,101244.59
2022-10-29T15:45:32.067Z,101233.72
2022-10-29T15:48:31.271Z,101262.97
2022-10-29T15:51:02.325Z,101262.97
2022-10-29T15:53:30.403Z,101266.53
2022-10-29T15:56:22.721Z,101224.50
2022-10-29T15:58:50.736Z,101261.09
2022-10-29T16:01:19.291Z,101194.19
2022-10-29T16:03:51.124Z,101267.34
2022-10-29T16:06:19.016Z,101257.53
2022-10-29T16:08:57.438Z,101257.53
2022-10-29T16:11:28.044Z,101253.97
2022-10-29T16:13:57.392Z,101241.38
2022-10-29T16:16:25.820Z,101243.91
2022-10-29T16:18:55.060Z,101243.91
2022-10-29T16:21:24.056Z,101248.50
2022-10-29T16:23:52.554Z,101247.47
2022-10-29T16:26:21.370Z,101234.03
2022-10-29T16:28:49.293Z,101234.03
2022-10-29T16:31:20.339Z,101232.16
2022-10-29T16:33:48.490Z,101220.25
2022-10-29T16:36:18.174Z,101221.25
2022-10-29T16:38:46.007Z,101224.19
2022-10-29T16:41:14.116Z,101228.59
2022-10-29T16:43:42.136Z,101221.25
2022-10-29T16:46:10.393Z,101225.88
2022-10-29T16:48:38.245Z,101222.75
2022-10-29T16:51:06.496Z,101230.47
2022-10-29T16:53:35.836Z,101232.16
2022-10-29T16:56:04.077Z,101221.09
2022-10-29T16:58:32.013Z,101220.63
2022-10-29T17:01:04.106Z,101232.16
2022-10-29T17:03:33.060Z,101228.59
2022-10-29T17:06:04.147Z,101225.88
2022-10-29T17:08:33.632Z,101222.97
2022-10-29T17:11:04.133Z,101205.59
2022-10-29T17:13:31.982Z,101234.03
2022-10-29T17:16:00.203Z,101232.38
2022-10-29T17:18:28.089Z,101231.31
2022-10-29T17:20:57.140Z,101235.09
2022-10-29T17:23:26.313Z,101225.25
2022-10-29T17:25:55.076Z,101211.91
2022-10-29T17:28:24.318Z,101230.47
2022-10-29T17:30:52.181Z,101229.66
2022-10-29T17:33:20.202Z,101233.22
2022-10-29T17:35:49.370Z,101232.38
2022-10-29T17:38:17.259Z,101241.38
2022-10-29T17:40:46.118Z,101241.38
2022-10-29T17:43:14.069Z,101237.81
2022-10-29T17:45:44.317Z,101244.94
2022-10-29T17:48:12.240Z,101242.22
2022-10-29T17:50:40.124Z,101253.13
2022-10-29T17:53:08.021Z,101247.69
2022-10-29T17:55:36.209Z,101239.50
2022-10-29T17:58:04.052Z,101241.38
2022-10-29T18:00:31.991Z,101214.22
2022-10-29T18:03:01.591Z,101242.22
2022-10-29T18:05:29.448Z,101230.94
2022-10-29T18:07:57.627Z,101246.00
2022-10-29T18:10:26.005Z,101252.28
2022-10-29T18:12:53.877Z,101241.38
2022-10-29T18:15:22.086Z,101230.31
2022-10-29T18:17:49.990Z,101240.53
2022-10-29T18:20:19.417Z,101231.53
2022-10-29T18:22:50.619Z,101234.25
2022-10-29T18:25:19.970Z,101238.88
2022-10-29T18:27:47.859Z,101238.66
2022-10-29T18:30:16.156Z,101244.13
2022-10-29T18:32:44.307Z,101230.75
2022-10-29T18:35:12.179Z,101255.00
2022-10-29T18:37:41.435Z,101256.91
2022-10-29T18:40:10.462Z,101258.56
2022-10-29T18:42:38.346Z,101249.56
2022-10-29T18:45:10.010Z,101233.88
2022-10-29T18:47:37.906Z,101243.06
2022-10-29T18:50:06.529Z,101241.38
2022-10-29T18:52:34.768Z,101244.13
2022-10-29T18:55:04.189Z,101243.91
2022-10-29T18:57:33.032Z,101243.06
2022-10-29T19:00:00.933Z,101219.44
2022-10-29T19:02:28.942Z,101240.34
2022-10-29T19:04:56.825Z,101231.31
2022-10-29T19:07:24.696Z,101202.06
2022-10-29T19:09:52.621Z,101231.31
2022-10-29T19:12:22.174Z,101239.50
2022-10-29T19:14:50.338Z,101236.78
2022-10-29T19:17:18.203Z,101233.22
2022-10-29T19:19:46.122Z,101236.78
2022-10-29T19:22:14.030Z,101235.94
2022-10-29T19:24:41.922Z,101232.16
2022-10-29T19:27:09.816Z,101230.47
2022-10-29T19:29:39.055Z,101234.03
2022-10-29T19:32:07.044Z,101231.31
2022-10-29T19:34:35.197Z,101223.56
2022-10-29T19:37:03.132Z,101220.25
2022-10-29T19:39:31.030Z,101240.34
2022-10-29T19:41:58.936Z,101235.94
2022-10-29T19:44:27.142Z,101224.19
2022-10-29T19:46:56.385Z,101231.53
2022-10-29T19:49:24.341Z,101231.53
2022-10-29T19:51:53.072Z,101231.53
2022-10-29T19:54:21.705Z,101230.47
2022-10-29T19:56:49.579Z,101235.94
2022-10-29T19:59:17.441Z,101241.38
2022-10-29T20:01:47.179Z,101234.03
2022-10-29T20:04:16.875Z,101236.78
2022-10-29T20:06:44.761Z,101243.06
2022-10-29T20:09:12.672Z,101239.50
2022-10-29T20:11:40.532Z,101238.44
2022-10-29T20:14:08.704Z,101243.06
2022-10-29T20:16:36.609Z,101249.34
2022-10-29T20:19:05.024Z,101241.19
2022-10-29T20:21:34.300Z,101234.88
2022-10-29T20:24:02.224Z,101240.34
2022-10-29T20:26:31.081Z,101238.66
2022-10-29T20:28:58.967Z,101234.03
2022-10-29T20:31:30.502Z,101239.28
2022-10-29T20:34:00.191Z,101235.72
2022-10-29T20:36:29.402Z,101233.00
2022-10-29T20:38:59.024Z,101229.44
2022-10-29T20:41:26.892Z,101237.63
2022-10-29T20:43:55.056Z,101235.72
2022-10-29T20:46:22.974Z,101237.63
2022-10-29T20:48:50.890Z,101234.03
2022-10-29T20:51:18.786Z,101236.78
2022-10-29T20:53:46.634Z,101236.78
2022-10-29T20:56:16.781Z,101225.69
2022-10-29T20:58:44.954Z,101246.84
2022-10-29T21:01:13.813Z,101246.84
2022-10-29T21:03:41.805Z,101253.13
2022-10-29T21:06:15.525Z,101255.84
2022-10-29T21:08:44.711Z,101239.53
2022-10-29T21:11:13.119Z,101245.81
2022-10-29T21:13:42.747Z,101257.75
2022-10-29T21:16:15.132Z,101258.56
2022-10-29T21:18:43.521Z,101260.66
2022-10-29T21:21:12.497Z,101269.69
2022-10-29T21:23:40.988Z,101274.09
2022-10-29T21:26:10.773Z,101279.34
2022-10-29T21:28:38.672Z,101274.94
2022-10-29T21:31:07.951Z,101281.22
2022-10-29T21:33:35.885Z,101266.75
2022-10-29T21:36:03.776Z,101277.44
2022-10-29T21:38:32.803Z,101281.22
2022-10-29T21:41:02.005Z,101276.59
2022-10-29T21:43:29.934Z,101284.78
2022-10-29T21:45:58.091Z,101281.22
2022-10-29T21:48:27.826Z,101276.59
2022-10-29T21:51:00.910Z,101259.06
2022-10-29T21:53:28.854Z,101281.22
2022-10-29T21:55:57.492Z,101271.81
2022-10-29T21:58:25.451Z,101281.22
2022-10-29T22:00:53.385Z,101285.63
2022-10-29T22:03:21.246Z,101290.22
2022-10-29T22:05:50.863Z,101292.97
2022-10-29T22:08:18.749Z,101292.97
2022-10-29T22:10:46.654Z,101283.56
2022-10-29T22:13:14.680Z,101295.69
2022-10-29T22:15:45.788Z,101294.00
2022-10-29T22:18:13.662Z,101289.41
2022-10-29T22:20:41.560Z,101296.72
2022-10-29T22:23:10.863Z,101288.56
2022-10-29T22:25:38.990Z,101276.25
2022-10-29T22:28:08.064Z,101288.75
2022-10-29T22:30:35.911Z,101289.59
2022-10-29T22:33:03.819Z,101284.34
2022-10-29T22:35:31.954Z,101269.31
2022-10-29T22:37:59.785Z,101279.75
2022-10-29T22:40:29.082Z,101278.06
2022-10-29T22:42:57.401Z,101270.72
2022-10-29T22:45:25.747Z,101270.53
2022-10-29T22:47:53.633Z,101275.13
2022-10-29T22:50:21.492Z,101277.88
2022-10-29T22:52:49.341Z,101274.28
2022-10-29T22:55:17.665Z,101272.41
2022-10-29T22:57:46.967Z,101268.63
2022-10-29T23:00:15.741Z,101265.06
2022-10-29T23:02:43.670Z,101264.06
2022-10-29T23:05:11.819Z,101272.41
2022-10-29T23:07:39.675Z,101273.25
2022-10-29T23:10:08.102Z,101175.06
2022-10-29T23:12:35.977Z,101280.59
2022-10-29T23:15:07.932Z,101280.59
2022-10-29T23:17:35.839Z,101274.13
2022-10-29T23:20:03.973Z,101277.88
2022-10-29T23:22:31.898Z,101277.03
2022-10-29T23:24:59.781Z,101274.28
2022-10-29T23:27:27.659Z,101268.00
2022-10-29T23:29:55.552Z,101274.53
2022-10-29T23:32:24.955Z,101272.63
2022-10-29T23:34:53.084Z,101276.19
2022-10-29T23:37:20.960Z,101278.91
2022-10-29T23:39:48.837Z,101278.91
2022-10-29T23:42:16.677Z,101276.19
2022-10-29T23:44:44.827Z,101284.34
2022-10-29T23:47:12.801Z,101280.78
2022-10-29T23:49:42.064Z,101285.44
2022-10-29T23:52:09.922Z,101284.34
2022-10-29T23:54:38.103Z,101280.78
2022-10-29T23:57:05.981Z,101278.91
2022-10-29T23:59:33.826Z,101271.81
